sensor_id;sensor_type;location;lat;lon;timestamp;P1;durP1;ratioP1;P2;durP2;ratioP2
80799;SDS011;70202;52.238;10.680;2023-10-08T00:00:24;0.03;;;0.03;;
80799;SDS011;70202;52.238;10.680;2023-10-08T00:01:46;0.00;;;0.00;;
80799;SDS011;70202;52.238;10.680;2023-10-08T00:02:47;0.00;;;0.00;;
80799;SDS011;70202;52.238;10.680;2023-10-08T00:03:48;0.00;;;0.00;;
80799;SDS011;70202;52.238;10.680;2023-10-08T00:04:53;0.00;;;0.00;;
80799;SDS011;70202;52.238;10.680;2023-10-08T00:06:02;0.00;;;0.00;;
80799;SDS011;70202;52.238;10.680;2023-10-08T00:07:06;0.00;;;0.00;;
80799;SDS011;70202;52.238;10.680;2023-10-08T00:08:07;0.00;;;0.00;;
80799;SDS011;70202;52.238;10.680;2023-10-08T00:09:09;0.00;;;0.00;;
80799;SDS011;70202;52.238;10.680;2023-10-08T00:10:10;0.00;;;0.00;;
80799;SDS011;70202;52.238;10.680;2023-10-08T00:11:13;0.00;;;0.00;;
80799;SDS011;70202;52.238;10.680;2023-10-08T00:12:15;0.00;;;0.00;;
80799;SDS011;70202;52.238;10.680;2023-10-08T00:13:16;0.00;;;0.00;;
80799;SDS011;70202;52.238;10.680;2023-10-08T00:14:17;0.00;;;0.00;;
80799;SDS011;70202;52.238;10.680;2023-10-08T00:15:21;0.00;;;0.00;;
80799;SDS011;70202;52.238;10.680;2023-10-08T00:16:25;0.00;;;0.00;;
80799;SDS011;70202;52.238;10.680;2023-10-08T00:17:28;0.00;;;0.00;;
80799;SDS011;70202;52.238;10.680;2023-10-08T00:18:28;0.00;;;0.00;;
80799;SDS011;70202;52.238;10.680;2023-10-08T00:19:29;0.00;;;0.00;;
80799;SDS011;70202;52.238;10.680;2023-10-08T00:20:35;0.00;;;0.00;;
80799;SDS011;70202;52.238;10.680;2023-10-08T00:21:42;0.00;;;0.00;;
80799;SDS011;70202;52.238;10.680;2023-10-08T00:22:45;0.57;;;0.10;;
80799;SDS011;70202;52.238;10.680;2023-10-08T00:23:47;0.00;;;0.00;;
80799;SDS011;70202;52.238;10.680;2023-10-08T00:24:52;0.00;;;0.00;;
80799;SDS011;70202;52.238;10.680;2023-10-08T00:25:58;0.05;;;0.00;;
80799;SDS011;70202;52.238;10.680;2023-10-08T00:27:04;0.05;;;0.00;;
80799;SDS011;70202;52.238;10.680;2023-10-08T00:28:09;0.00;;;0.00;;
80799;SDS011;70202;52.238;10.680;2023-10-08T00:29:13;0.05;;;0.00;;
80799;SDS011;70202;52.238;10.680;2023-10-08T00:30:16;0.00;;;0.00;;
80799;SDS011;70202;52.238;10.680;2023-10-08T00:31:19;0.00;;;0.00;;
80799;SDS011;70202;52.238;10.680;2023-10-08T00:32:23;0.00;;;0.00;;
80799;SDS011;70202;52.238;10.680;2023-10-08T00:33:24;0.00;;;0.00;;
80799;SDS011;70202;52.238;10.680;2023-10-08T00:34:24;0.10;;;0.00;;
80799;SDS011;70202;52.238;10.680;2023-10-08T00:35:27;0.00;;;0.00;;
80799;SDS011;70202;52.238;10.680;2023-10-08T00:36:27;0.00;;;0.00;;
80799;SDS011;70202;52.238;10.680;2023-10-08T00:37:28;0.00;;;0.00;;
80799;SDS011;70202;52.238;10.680;2023-10-08T00:38:29;0.38;;;0.03;;
80799;SDS011;70202;52.238;10.680;2023-10-08T00:39:32;0.00;;;0.00;;
80799;SDS011;70202;52.238;10.680;2023-10-08T00:40:38;0.00;;;0.00;;
80799;SDS011;70202;52.238;10.680;2023-10-08T00:41:46;0.15;;;0.00;;
80799;SDS011;70202;52.238;10.680;2023-10-08T00:42:47;0.03;;;0.03;;
80799;SDS011;70202;52.238;10.680;2023-10-08T00:43:48;0.17;;;0.00;;
80799;SDS011;70202;52.238;10.680;2023-10-08T00:44:48;0.00;;;0.00;;
80799;SDS011;70202;52.238;10.680;2023-10-08T00:45:51;0.00;;;0.00;;
80799;SDS011;70202;52.238;10.680;2023-10-08T00:46:52;0.00;;;0.00;;
80799;SDS011;70202;52.238;10.680;2023-10-08T00:47:55;0.00;;;0.00;;
80799;SDS011;70202;52.238;10.680;2023-10-08T00:48:56;0.00;;;0.00;;
80799;SDS011;70202;52.238;10.680;2023-10-08T00:49:58;0.00;;;0.00;;
80799;SDS011;70202;52.238;10.680;2023-10-08T00:51:06;0.00;;;0.00;;
80799;SDS011;70202;52.238;10.680;2023-10-08T00:52:26;0.00;;;0.00;;
80799;SDS011;70202;52.238;10.680;2023-10-08T00:53:29;0.00;;;0.00;;
80799;SDS011;70202;52.238;10.680;2023-10-08T00:54:31;0.00;;;0.00;;
80799;SDS011;70202;52.238;10.680;2023-10-08T00:55:47;0.00;;;0.00;;
80799;SDS011;70202;52.238;10.680;2023-10-08T00:58:05;0.00;;;0.00;;
80799;SDS011;70202;52.238;10.680;2023-10-08T00:59:09;0.05;;;0.00;;
80799;SDS011;70202;52.238;10.680;2023-10-08T01:00:15;0.00;;;0.00;;
80799;SDS011;70202;52.238;10.680;2023-10-08T01:01:21;0.00;;;0.00;;
80799;SDS011;70202;52.238;10.680;2023-10-08T01:02:23;0.00;;;0.00;;
80799;SDS011;70202;52.238;10.680;2023-10-08T01:03:28;0.00;;;0.00;;
80799;SDS011;70202;52.238;10.680;2023-10-08T01:04:29;0.00;;;0.00;;
80799;SDS011;70202;52.238;10.680;2023-10-08T01:05:33;0.00;;;0.00;;
80799;SDS011;70202;52.238;10.680;2023-10-08T01:06:42;0.20;;;0.00;;
80799;SDS011;70202;52.238;10.680;2023-10-08T01:07:43;0.00;;;0.00;;
80799;SDS011;70202;52.238;10.680;2023-10-08T01:08:48;0.00;;;0.00;;
80799;SDS011;70202;52.238;10.680;2023-10-08T01:09:52;0.00;;;0.00;;
80799;SDS011;70202;52.238;10.680;2023-10-08T01:10:59;0.10;;;0.00;;
80799;SDS011;70202;52.238;10.680;2023-10-08T01:12:17;0.00;;;0.00;;
80799;SDS011;70202;52.238;10.680;2023-10-08T01:13:30;0.00;;;0.00;;
80799;SDS011;70202;52.238;10.680;2023-10-08T01:14:35;0.00;;;0.00;;
80799;SDS011;70202;52.238;10.680;2023-10-08T01:15:36;0.00;;;0.00;;
80799;SDS011;70202;52.238;10.680;2023-10-08T01:16:37;0.22;;;0.00;;
80799;SDS011;70202;52.238;10.680;2023-10-08T01:17:39;0.00;;;0.00;;
80799;SDS011;70202;52.238;10.680;2023-10-08T01:18:48;0.00;;;0.00;;
80799;SDS011;70202;52.238;10.680;2023-10-08T01:19:54;0.00;;;0.00;;
80799;SDS011;70202;52.238;10.680;2023-10-08T01:21:08;0.10;;;0.00;;
80799;SDS011;70202;52.238;10.680;2023-10-08T01:22:17;0.00;;;0.00;;
80799;SDS011;70202;52.238;10.680;2023-10-08T01:23:22;0.00;;;0.00;;
80799;SDS011;70202;52.238;10.680;2023-10-08T01:24:26;0.43;;;0.10;;
80799;SDS011;70202;52.238;10.680;2023-10-08T01:25:27;0.22;;;0.13;;
80799;SDS011;70202;52.238;10.680;2023-10-08T01:26:29;0.30;;;0.20;;
80799;SDS011;70202;52.238;10.680;2023-10-08T01:27:31;0.52;;;0.10;;
80799;SDS011;70202;52.238;10.680;2023-10-08T01:28:35;0.20;;;0.10;;
80799;SDS011;70202;52.238;10.680;2023-10-08T01:29:35;0.22;;;0.10;;
80799;SDS011;70202;52.238;10.680;2023-10-08T01:30:36;0.60;;;0.15;;
80799;SDS011;70202;52.238;10.680;2023-10-08T01:31:41;0.57;;;0.20;;
80799;SDS011;70202;52.238;10.680;2023-10-08T01:32:42;0.28;;;0.00;;
80799;SDS011;70202;52.238;10.680;2023-10-08T01:33:43;0.00;;;0.00;;
80799;SDS011;70202;52.238;10.680;2023-10-08T01:35:04;0.47;;;0.20;;
80799;SDS011;70202;52.238;10.680;2023-10-08T01:36:16;0.75;;;0.20;;
80799;SDS011;70202;52.238;10.680;2023-10-08T01:37:17;0.55;;;0.22;;
80799;SDS011;70202;52.238;10.680;2023-10-08T01:38:18;0.25;;;0.10;;
80799;SDS011;70202;52.238;10.680;2023-10-08T01:39:23;0.17;;;0.10;;
80799;SDS011;70202;52.238;10.680;2023-10-08T01:40:26;0.63;;;0.28;;
80799;SDS011;70202;52.238;10.680;2023-10-08T01:41:29;1.30;;;0.35;;
80799;SDS011;70202;52.238;10.680;2023-10-08T01:42:30;0.68;;;0.15;;
80799;SDS011;70202;52.238;10.680;2023-10-08T01:43:33;0.25;;;0.05;;
80799;SDS011;70202;52.238;10.680;2023-10-08T01:44:34;0.60;;;0.20;;
80799;SDS011;70202;52.238;10.680;2023-10-08T01:45:35;0.63;;;0.25;;
80799;SDS011;70202;52.238;10.680;2023-10-08T01:46:40;0.20;;;0.10;;
80799;SDS011;70202;52.238;10.680;2023-10-08T01:47:41;0.80;;;0.13;;
80799;SDS011;70202;52.238;10.680;2023-10-08T01:48:43;0.75;;;0.10;;
80799;SDS011;70202;52.238;10.680;2023-10-08T01:49:45;0.00;;;0.00;;
80799;SDS011;70202;52.238;10.680;2023-10-08T01:50:49;0.55;;;0.10;;
80799;SDS011;70202;52.238;10.680;2023-10-08T01:51:54;0.70;;;0.20;;
80799;SDS011;70202;52.238;10.680;2023-10-08T01:52:55;0.30;;;0.20;;
80799;SDS011;70202;52.238;10.680;2023-10-08T01:53:55;0.68;;;0.20;;
80799;SDS011;70202;52.238;10.680;2023-10-08T01:54:57;0.10;;;0.10;;
80799;SDS011;70202;52.238;10.680;2023-10-08T01:55:58;1.15;;;0.30;;
80799;SDS011;70202;52.238;10.680;2023-10-08T01:56:58;0.10;;;0.00;;
80799;SDS011;70202;52.238;10.680;2023-10-08T01:57:59;0.65;;;0.10;;
80799;SDS011;70202;52.238;10.680;2023-10-08T01:58:59;0.22;;;0.13;;
80799;SDS011;70202;52.238;10.680;2023-10-08T02:00:00;0.45;;;0.30;;
80799;SDS011;70202;52.238;10.680;2023-10-08T02:01:01;1.48;;;0.30;;
80799;SDS011;70202;52.238;10.680;2023-10-08T02:02:01;0.40;;;0.20;;
80799;SDS011;70202;52.238;10.680;2023-10-08T02:03:02;0.17;;;0.08;;
80799;SDS011;70202;52.238;10.680;2023-10-08T02:04:02;0.55;;;0.13;;
80799;SDS011;70202;52.238;10.680;2023-10-08T02:05:03;0.52;;;0.20;;
80799;SDS011;70202;52.238;10.680;2023-10-08T02:06:04;0.25;;;0.10;;
80799;SDS011;70202;52.238;10.680;2023-10-08T02:07:08;0.25;;;0.13;;
80799;SDS011;70202;52.238;10.680;2023-10-08T02:08:12;1.13;;;0.30;;
80799;SDS011;70202;52.238;10.680;2023-10-08T02:09:14;0.00;;;0.00;;
80799;SDS011;70202;52.238;10.680;2023-10-08T02:10:15;1.33;;;0.30;;
80799;SDS011;70202;52.238;10.680;2023-10-08T02:11:15;0.50;;;0.20;;
80799;SDS011;70202;52.238;10.680;2023-10-08T02:12:16;0.10;;;0.10;;
80799;SDS011;70202;52.238;10.680;2023-10-08T02:13:16;0.00;;;0.00;;
80799;SDS011;70202;52.238;10.680;2023-10-08T02:14:17;0.47;;;0.20;;
80799;SDS011;70202;52.238;10.680;2023-10-08T02:15:18;0.25;;;0.10;;
80799;SDS011;70202;52.238;10.680;2023-10-08T02:16:19;0.20;;;0.00;;
80799;SDS011;70202;52.238;10.680;2023-10-08T02:17:22;0.75;;;0.22;;
80799;SDS011;70202;52.238;10.680;2023-10-08T02:18:22;0.43;;;0.10;;
80799;SDS011;70202;52.238;10.680;2023-10-08T02:19:25;0.35;;;0.20;;
80799;SDS011;70202;52.238;10.680;2023-10-08T02:20:29;0.32;;;0.10;;
80799;SDS011;70202;52.238;10.680;2023-10-08T02:21:29;0.57;;;0.28;;
80799;SDS011;70202;52.238;10.680;2023-10-08T02:22:31;0.45;;;0.25;;
80799;SDS011;70202;52.238;10.680;2023-10-08T02:23:35;0.90;;;0.17;;
80799;SDS011;70202;52.238;10.680;2023-10-08T02:24:37;0.22;;;0.03;;
80799;SDS011;70202;52.238;10.680;2023-10-08T02:25:38;0.13;;;0.10;;
80799;SDS011;70202;52.238;10.680;2023-10-08T02:26:42;0.45;;;0.20;;
80799;SDS011;70202;52.238;10.680;2023-10-08T02:27:43;0.45;;;0.17;;
80799;SDS011;70202;52.238;10.680;2023-10-08T02:28:43;0.38;;;0.20;;
80799;SDS011;70202;52.238;10.680;2023-10-08T02:29:44;0.75;;;0.20;;
80799;SDS011;70202;52.238;10.680;2023-10-08T02:30:44;0.47;;;0.20;;
80799;SDS011;70202;52.238;10.680;2023-10-08T02:31:45;0.60;;;0.20;;
80799;SDS011;70202;52.238;10.680;2023-10-08T02:32:45;0.13;;;0.10;;
80799;SDS011;70202;52.238;10.680;2023-10-08T02:33:46;0.38;;;0.20;;
80799;SDS011;70202;52.238;10.680;2023-10-08T02:34:47;1.55;;;0.28;;
80799;SDS011;70202;52.238;10.680;2023-10-08T02:35:47;0.65;;;0.25;;
80799;SDS011;70202;52.238;10.680;2023-10-08T02:36:49;0.50;;;0.13;;
80799;SDS011;70202;52.238;10.680;2023-10-08T02:37:50;1.17;;;0.35;;
80799;SDS011;70202;52.238;10.680;2023-10-08T02:38:50;0.05;;;0.03;;
80799;SDS011;70202;52.238;10.680;2023-10-08T02:39:51;0.52;;;0.20;;
80799;SDS011;70202;52.238;10.680;2023-10-08T02:40:51;0.95;;;0.15;;
80799;SDS011;70202;52.238;10.680;2023-10-08T02:42:58;0.10;;;0.03;;
80799;SDS011;70202;52.238;10.680;2023-10-08T02:44:00;0.13;;;0.13;;
80799;SDS011;70202;52.238;10.680;2023-10-08T02:45:00;0.28;;;0.03;;
80799;SDS011;70202;52.238;10.680;2023-10-08T02:46:02;0.75;;;0.25;;
80799;SDS011;70202;52.238;10.680;2023-10-08T02:47:14;0.52;;;0.10;;
80799;SDS011;70202;52.238;10.680;2023-10-08T02:48:20;0.30;;;0.10;;
80799;SDS011;70202;52.238;10.680;2023-10-08T02:49:21;0.20;;;0.03;;
80799;SDS011;70202;52.238;10.680;2023-10-08T02:50:22;0.20;;;0.10;;
80799;SDS011;70202;52.238;10.680;2023-10-08T02:51:23;0.47;;;0.20;;
80799;SDS011;70202;52.238;10.680;2023-10-08T02:52:24;0.32;;;0.20;;
80799;SDS011;70202;52.238;10.680;2023-10-08T02:53:26;0.70;;;0.25;;
80799;SDS011;70202;52.238;10.680;2023-10-08T02:54:26;0.45;;;0.25;;
80799;SDS011;70202;52.238;10.680;2023-10-08T02:55:36;0.68;;;0.20;;
80799;SDS011;70202;52.238;10.680;2023-10-08T02:56:43;0.98;;;0.20;;
80799;SDS011;70202;52.238;10.680;2023-10-08T02:57:57;0.68;;;0.25;;
80799;SDS011;70202;52.238;10.680;2023-10-08T02:58:58;0.38;;;0.10;;
80799;SDS011;70202;52.238;10.680;2023-10-08T03:00:01;0.52;;;0.22;;
80799;SDS011;70202;52.238;10.680;2023-10-08T03:01:04;0.75;;;0.20;;
80799;SDS011;70202;52.238;10.680;2023-10-08T03:02:04;0.75;;;0.30;;
80799;SDS011;70202;52.238;10.680;2023-10-08T03:03:13;0.75;;;0.28;;
80799;SDS011;70202;52.238;10.680;2023-10-08T03:04:18;0.25;;;0.10;;
80799;SDS011;70202;52.238;10.680;2023-10-08T03:05:18;1.15;;;0.40;;
80799;SDS011;70202;52.238;10.680;2023-10-08T03:06:19;0.28;;;0.15;;
80799;SDS011;70202;52.238;10.680;2023-10-08T03:07:19;0.52;;;0.13;;
80799;SDS011;70202;52.238;10.680;2023-10-08T03:08:32;0.05;;;0.00;;
80799;SDS011;70202;52.238;10.680;2023-10-08T03:09:36;0.45;;;0.10;;
80799;SDS011;70202;52.238;10.680;2023-10-08T03:10:41;0.75;;;0.17;;
80799;SDS011;70202;52.238;10.680;2023-10-08T03:11:44;0.32;;;0.13;;
80799;SDS011;70202;52.238;10.680;2023-10-08T03:12:47;0.25;;;0.08;;
80799;SDS011;70202;52.238;10.680;2023-10-08T03:13:47;1.02;;;0.30;;
80799;SDS011;70202;52.238;10.680;2023-10-08T03:14:51;0.68;;;0.30;;
80799;SDS011;70202;52.238;10.680;2023-10-08T03:16:01;0.55;;;0.30;;
80799;SDS011;70202;52.238;10.680;2023-10-08T03:17:02;0.30;;;0.10;;
80799;SDS011;70202;52.238;10.680;2023-10-08T03:18:07;1.08;;;0.17;;
80799;SDS011;70202;52.238;10.680;2023-10-08T03:19:14;0.45;;;0.17;;
80799;SDS011;70202;52.238;10.680;2023-10-08T03:20:18;0.20;;;0.20;;
80799;SDS011;70202;52.238;10.680;2023-10-08T03:21:29;0.05;;;0.05;;
80799;SDS011;70202;52.238;10.680;2023-10-08T03:22:39;0.13;;;0.00;;
80799;SDS011;70202;52.238;10.680;2023-10-08T03:23:45;0.22;;;0.20;;
80799;SDS011;70202;52.238;10.680;2023-10-08T03:25:51;0.32;;;0.10;;
80799;SDS011;70202;52.238;10.680;2023-10-08T03:27:00;0.52;;;0.10;;
80799;SDS011;70202;52.238;10.680;2023-10-08T03:28:08;0.95;;;0.20;;
80799;SDS011;70202;52.238;10.680;2023-10-08T03:29:09;0.10;;;0.10;;
80799;SDS011;70202;52.238;10.680;2023-10-08T03:30:15;0.52;;;0.30;;
80799;SDS011;70202;52.238;10.680;2023-10-08T03:31:16;1.00;;;0.30;;
80799;SDS011;70202;52.238;10.680;2023-10-08T03:32:17;0.60;;;0.20;;
80799;SDS011;70202;52.238;10.680;2023-10-08T03:33:18;0.25;;;0.08;;
80799;SDS011;70202;52.238;10.680;2023-10-08T03:34:26;0.73;;;0.17;;
80799;SDS011;70202;52.238;10.680;2023-10-08T03:35:33;0.47;;;0.20;;
80799;SDS011;70202;52.238;10.680;2023-10-08T03:36:37;0.80;;;0.32;;
80799;SDS011;70202;52.238;10.680;2023-10-08T03:37:44;1.13;;;0.20;;
80799;SDS011;70202;52.238;10.680;2023-10-08T03:38:50;1.02;;;0.30;;
80799;SDS011;70202;52.238;10.680;2023-10-08T03:39:51;0.10;;;0.08;;
80799;SDS011;70202;52.238;10.680;2023-10-08T03:40:51;0.32;;;0.10;;
80799;SDS011;70202;52.238;10.680;2023-10-08T03:41:57;0.20;;;0.10;;
80799;SDS011;70202;52.238;10.680;2023-10-08T03:43:07;0.20;;;0.20;;
80799;SDS011;70202;52.238;10.680;2023-10-08T03:44:15;0.43;;;0.17;;
80799;SDS011;70202;52.238;10.680;2023-10-08T03:45:16;0.55;;;0.20;;
80799;SDS011;70202;52.238;10.680;2023-10-08T03:46:37;0.17;;;0.17;;
80799;SDS011;70202;52.238;10.680;2023-10-08T03:47:42;1.27;;;0.47;;
80799;SDS011;70202;52.238;10.680;2023-10-08T03:48:46;0.15;;;0.03;;
80799;SDS011;70202;52.238;10.680;2023-10-08T03:49:50;0.70;;;0.20;;
80799;SDS011;70202;52.238;10.680;2023-10-08T03:50:51;0.43;;;0.17;;
80799;SDS011;70202;52.238;10.680;2023-10-08T03:52:00;0.88;;;0.20;;
80799;SDS011;70202;52.238;10.680;2023-10-08T03:53:00;0.47;;;0.17;;
80799;SDS011;70202;52.238;10.680;2023-10-08T03:54:02;0.25;;;0.10;;
80799;SDS011;70202;52.238;10.680;2023-10-08T03:55:09;0.10;;;0.00;;
80799;SDS011;70202;52.238;10.680;2023-10-08T03:56:18;1.08;;;0.22;;
80799;SDS011;70202;52.238;10.680;2023-10-08T03:57:19;1.65;;;0.40;;
80799;SDS011;70202;52.238;10.680;2023-10-08T03:58:28;0.45;;;0.25;;
80799;SDS011;70202;52.238;10.680;2023-10-08T03:59:40;0.22;;;0.10;;
80799;SDS011;70202;52.238;10.680;2023-10-08T04:00:42;0.08;;;0.00;;
80799;SDS011;70202;52.238;10.680;2023-10-08T04:01:46;0.43;;;0.20;;
80799;SDS011;70202;52.238;10.680;2023-10-08T04:02:49;0.40;;;0.30;;
80799;SDS011;70202;52.238;10.680;2023-10-08T04:04:00;1.25;;;0.30;;
80799;SDS011;70202;52.238;10.680;2023-10-08T04:05:01;0.63;;;0.17;;
80799;SDS011;70202;52.238;10.680;2023-10-08T04:06:20;1.02;;;0.40;;
80799;SDS011;70202;52.238;10.680;2023-10-08T04:07:31;0.22;;;0.10;;
80799;SDS011;70202;52.238;10.680;2023-10-08T04:09:00;0.10;;;0.03;;
80799;SDS011;70202;52.238;10.680;2023-10-08T04:10:09;0.30;;;0.17;;
80799;SDS011;70202;52.238;10.680;2023-10-08T04:11:10;0.50;;;0.30;;
80799;SDS011;70202;52.238;10.680;2023-10-08T04:12:30;0.40;;;0.03;;
80799;SDS011;70202;52.238;10.680;2023-10-08T04:13:34;0.55;;;0.30;;
80799;SDS011;70202;52.238;10.680;2023-10-08T04:14:44;0.13;;;0.00;;
80799;SDS011;70202;52.238;10.680;2023-10-08T04:15:45;0.85;;;0.30;;
80799;SDS011;70202;52.238;10.680;2023-10-08T04:16:46;0.47;;;0.10;;
80799;SDS011;70202;52.238;10.680;2023-10-08T04:18:51;0.57;;;0.27;;
80799;SDS011;70202;52.238;10.680;2023-10-08T04:19:55;0.57;;;0.20;;
80799;SDS011;70202;52.238;10.680;2023-10-08T04:20:58;0.60;;;0.10;;
80799;SDS011;70202;52.238;10.680;2023-10-08T04:22:04;0.47;;;0.20;;
80799;SDS011;70202;52.238;10.680;2023-10-08T04:23:14;0.47;;;0.20;;
80799;SDS011;70202;52.238;10.680;2023-10-08T04:24:19;0.20;;;0.10;;
80799;SDS011;70202;52.238;10.680;2023-10-08T04:25:20;0.20;;;0.10;;
80799;SDS011;70202;52.238;10.680;2023-10-08T04:26:21;1.92;;;0.30;;
80799;SDS011;70202;52.238;10.680;2023-10-08T04:27:23;0.08;;;0.03;;
80799;SDS011;70202;52.238;10.680;2023-10-08T04:28:26;1.10;;;0.28;;
80799;SDS011;70202;52.238;10.680;2023-10-08T04:29:28;1.33;;;0.45;;
80799;SDS011;70202;52.238;10.680;2023-10-08T04:30:32;0.55;;;0.20;;
80799;SDS011;70202;52.238;10.680;2023-10-08T04:31:33;0.63;;;0.15;;
80799;SDS011;70202;52.238;10.680;2023-10-08T04:32:43;0.98;;;0.30;;
80799;SDS011;70202;52.238;10.680;2023-10-08T04:33:44;0.20;;;0.10;;
80799;SDS011;70202;52.238;10.680;2023-10-08T04:34:45;0.45;;;0.10;;
80799;SDS011;70202;52.238;10.680;2023-10-08T04:35:47;0.10;;;0.10;;
80799;SDS011;70202;52.238;10.680;2023-10-08T04:36:56;0.98;;;0.30;;
80799;SDS011;70202;52.238;10.680;2023-10-08T04:38:12;1.05;;;0.25;;
80799;SDS011;70202;52.238;10.680;2023-10-08T04:39:15;0.45;;;0.15;;
80799;SDS011;70202;52.238;10.680;2023-10-08T04:40:21;0.45;;;0.17;;
80799;SDS011;70202;52.238;10.680;2023-10-08T04:41:23;0.40;;;0.20;;
80799;SDS011;70202;52.238;10.680;2023-10-08T04:42:28;0.60;;;0.20;;
80799;SDS011;70202;52.238;10.680;2023-10-08T04:43:28;0.28;;;0.15;;
80799;SDS011;70202;52.238;10.680;2023-10-08T04:44:30;0.30;;;0.10;;
80799;SDS011;70202;52.238;10.680;2023-10-08T04:45:32;0.45;;;0.20;;
80799;SDS011;70202;52.238;10.680;2023-10-08T04:46:34;0.90;;;0.30;;
80799;SDS011;70202;52.238;10.680;2023-10-08T04:47:46;0.30;;;0.20;;
80799;SDS011;70202;52.238;10.680;2023-10-08T04:48:49;0.88;;;0.25;;
80799;SDS011;70202;52.238;10.680;2023-10-08T04:49:49;0.30;;;0.10;;
80799;SDS011;70202;52.238;10.680;2023-10-08T04:50:53;0.20;;;0.10;;
80799;SDS011;70202;52.238;10.680;2023-10-08T04:52:05;1.02;;;0.22;;
80799;SDS011;70202;52.238;10.680;2023-10-08T04:53:18;0.75;;;0.10;;
80799;SDS011;70202;52.238;10.680;2023-10-08T04:54:28;0.40;;;0.10;;
80799;SDS011;70202;52.238;10.680;2023-10-08T04:55:31;0.30;;;0.20;;
80799;SDS011;70202;52.238;10.680;2023-10-08T04:56:32;0.43;;;0.20;;
80799;SDS011;70202;52.238;10.680;2023-10-08T04:57:33;0.30;;;0.10;;
80799;SDS011;70202;52.238;10.680;2023-10-08T04:58:34;0.57;;;0.20;;
80799;SDS011;70202;52.238;10.680;2023-10-08T04:59:43;0.25;;;0.10;;
80799;SDS011;70202;52.238;10.680;2023-10-08T05:00:44;0.15;;;0.10;;
80799;SDS011;70202;52.238;10.680;2023-10-08T05:01:53;0.50;;;0.20;;
80799;SDS011;70202;52.238;10.680;2023-10-08T05:03:13;0.65;;;0.20;;
80799;SDS011;70202;52.238;10.680;2023-10-08T05:04:16;0.28;;;0.13;;
80799;SDS011;70202;52.238;10.680;2023-10-08T05:05:45;0.43;;;0.17;;
80799;SDS011;70202;52.238;10.680;2023-10-08T05:07:04;0.32;;;0.20;;
80799;SDS011;70202;52.238;10.680;2023-10-08T05:08:17;0.75;;;0.50;;
80799;SDS011;70202;52.238;10.680;2023-10-08T05:09:28;3.70;;;1.90;;
80799;SDS011;70202;52.238;10.680;2023-10-08T05:11:03;1.90;;;0.90;;
80799;SDS011;70202;52.238;10.680;2023-10-08T05:12:37;1.20;;;0.60;;
80799;SDS011;70202;52.238;10.680;2023-10-08T05:13:42;2.20;;;0.80;;
80799;SDS011;70202;52.238;10.680;2023-10-08T05:15:01;2.60;;;0.80;;
80799;SDS011;70202;52.238;10.680;2023-10-08T05:16:13;1.25;;;0.65;;
80799;SDS011;70202;52.238;10.680;2023-10-08T05:17:35;0.68;;;0.30;;
80799;SDS011;70202;52.238;10.680;2023-10-08T05:18:56;0.28;;;0.20;;
80799;SDS011;70202;52.238;10.680;2023-10-08T05:20:28;0.60;;;0.30;;
80799;SDS011;70202;52.238;10.680;2023-10-08T05:21:47;0.45;;;0.08;;
80799;SDS011;70202;52.238;10.680;2023-10-08T05:23:12;1.48;;;0.40;;
80799;SDS011;70202;52.238;10.680;2023-10-08T05:24:28;0.98;;;0.40;;
80799;SDS011;70202;52.238;10.680;2023-10-08T05:25:41;1.08;;;0.68;;
80799;SDS011;70202;52.238;10.680;2023-10-08T05:26:57;1.50;;;0.60;;
80799;SDS011;70202;52.238;10.680;2023-10-08T05:28:18;1.60;;;0.75;;
80799;SDS011;70202;52.238;10.680;2023-10-08T05:29:24;0.90;;;0.35;;
80799;SDS011;70202;52.238;10.680;2023-10-08T05:30:52;1.02;;;0.40;;
80799;SDS011;70202;52.238;10.680;2023-10-08T05:31:55;1.55;;;0.50;;
80799;SDS011;70202;52.238;10.680;2023-10-08T05:33:14;0.57;;;0.10;;
80799;SDS011;70202;52.238;10.680;2023-10-08T05:34:17;0.40;;;0.20;;
80799;SDS011;70202;52.238;10.680;2023-10-08T05:35:33;0.75;;;0.30;;
80799;SDS011;70202;52.238;10.680;2023-10-08T05:36:41;1.90;;;0.50;;
80799;SDS011;70202;52.238;10.680;2023-10-08T05:38:20;0.40;;;0.22;;
80799;SDS011;70202;52.238;10.680;2023-10-08T05:39:23;1.42;;;0.30;;
80799;SDS011;70202;52.238;10.680;2023-10-08T05:42:00;0.50;;;0.20;;
80799;SDS011;70202;52.238;10.680;2023-10-08T05:43:13;0.70;;;0.20;;
80799;SDS011;70202;52.238;10.680;2023-10-08T05:44:33;0.73;;;0.30;;
80799;SDS011;70202;52.238;10.680;2023-10-08T05:45:40;0.30;;;0.22;;
80799;SDS011;70202;52.238;10.680;2023-10-08T05:46:52;1.30;;;0.30;;
80799;SDS011;70202;52.238;10.680;2023-10-08T05:47:56;0.52;;;0.20;;
80799;SDS011;70202;52.238;10.680;2023-10-08T05:49:15;0.20;;;0.10;;
80799;SDS011;70202;52.238;10.680;2023-10-08T05:50:26;0.35;;;0.20;;
80799;SDS011;70202;52.238;10.680;2023-10-08T05:51:26;1.45;;;0.38;;
80799;SDS011;70202;52.238;10.680;2023-10-08T05:52:46;0.35;;;0.20;;
80799;SDS011;70202;52.238;10.680;2023-10-08T05:54:02;0.82;;;0.17;;
80799;SDS011;70202;52.238;10.680;2023-10-08T05:55:11;0.20;;;0.20;;
80799;SDS011;70202;52.238;10.680;2023-10-08T05:56:17;0.68;;;0.28;;
80799;SDS011;70202;52.238;10.680;2023-10-08T05:57:28;0.65;;;0.30;;
80799;SDS011;70202;52.238;10.680;2023-10-08T05:58:46;0.70;;;0.30;;
80799;SDS011;70202;52.238;10.680;2023-10-08T06:00:00;0.45;;;0.20;;
80799;SDS011;70202;52.238;10.680;2023-10-08T06:01:00;0.57;;;0.25;;
80799;SDS011;70202;52.238;10.680;2023-10-08T06:02:28;0.13;;;0.03;;
80799;SDS011;70202;52.238;10.680;2023-10-08T06:03:32;0.28;;;0.20;;
80799;SDS011;70202;52.238;10.680;2023-10-08T06:04:36;0.75;;;0.20;;
80799;SDS011;70202;52.238;10.680;2023-10-08T06:05:53;0.50;;;0.32;;
80799;SDS011;70202;52.238;10.680;2023-10-08T06:07:13;0.40;;;0.30;;
80799;SDS011;70202;52.238;10.680;2023-10-08T06:08:23;0.65;;;0.20;;
80799;SDS011;70202;52.238;10.680;2023-10-08T06:09:43;0.10;;;0.10;;
80799;SDS011;70202;52.238;10.680;2023-10-08T06:11:01;0.40;;;0.15;;
80799;SDS011;70202;52.238;10.680;2023-10-08T06:12:17;0.88;;;0.17;;
80799;SDS011;70202;52.238;10.680;2023-10-08T06:13:29;1.45;;;0.40;;
80799;SDS011;70202;52.238;10.680;2023-10-08T06:14:43;0.73;;;0.25;;
80799;SDS011;70202;52.238;10.680;2023-10-08T06:15:52;0.57;;;0.10;;
80799;SDS011;70202;52.238;10.680;2023-10-08T06:16:56;1.33;;;0.30;;
80799;SDS011;70202;52.238;10.680;2023-10-08T06:18:19;0.52;;;0.20;;
80799;SDS011;70202;52.238;10.680;2023-10-08T06:19:25;0.50;;;0.03;;
80799;SDS011;70202;52.238;10.680;2023-10-08T06:20:26;1.35;;;0.22;;
80799;SDS011;70202;52.238;10.680;2023-10-08T06:21:26;0.75;;;0.22;;
80799;SDS011;70202;52.238;10.680;2023-10-08T06:22:27;0.43;;;0.22;;
80799;SDS011;70202;52.238;10.680;2023-10-08T06:23:28;0.55;;;0.20;;
80799;SDS011;70202;52.238;10.680;2023-10-08T06:24:32;0.52;;;0.25;;
80799;SDS011;70202;52.238;10.680;2023-10-08T06:25:33;0.35;;;0.20;;
80799;SDS011;70202;52.238;10.680;2023-10-08T06:26:44;0.60;;;0.30;;
80799;SDS011;70202;52.238;10.680;2023-10-08T06:27:51;0.75;;;0.20;;
80799;SDS011;70202;52.238;10.680;2023-10-08T06:28:55;0.38;;;0.10;;
80799;SDS011;70202;52.238;10.680;2023-10-08T06:29:58;0.10;;;0.10;;
80799;SDS011;70202;52.238;10.680;2023-10-08T06:30:58;0.63;;;0.15;;
80799;SDS011;70202;52.238;10.680;2023-10-08T06:31:59;0.63;;;0.20;;
80799;SDS011;70202;52.238;10.680;2023-10-08T06:33:02;0.73;;;0.30;;
80799;SDS011;70202;52.238;10.680;2023-10-08T06:34:03;0.40;;;0.20;;
80799;SDS011;70202;52.238;10.680;2023-10-08T06:35:06;0.52;;;0.20;;
80799;SDS011;70202;52.238;10.680;2023-10-08T06:36:07;0.30;;;0.15;;